sensor_id;sensor_type;location;lat;lon;timestamp;P1;durP1;ratioP1;P2;durP2;ratioP2
44276;SDS011;29973;43.742;1.236;2023-11-22T10:51:14;2.45;;;2.25;;
44276;SDS011;29973;43.742;1.236;2023-11-22T10:53:48;4.80;;;2.45;;
44276;SDS011;29973;43.742;1.236;2023-11-22T10:56:15;5.57;;;2.30;;
44276;SDS011;29973;43.742;1.236;2023-11-22T10:58:48;4.18;;;2.30;;
44276;SDS011;29973;43.742;1.236;2023-11-22T11:01:15;2.53;;;2.20;;
44276;SDS011;29973;43.742;1.236;2023-11-22T11:03:43;3.50;;;2.08;;
44276;SDS011;29973;43.742;1.236;2023-11-22T11:06:16;4.78;;;2.35;;
44276;SDS011;29973;43.742;1.236;2023-11-22T11:08:52;2.88;;;2.30;;
44276;SDS011;29973;43.742;1.236;2023-11-22T11:11:19;7.18;;;2.15;;
44276;SDS011;29973;43.742;1.236;2023-11-22T11:13:46;4.50;;;2.83;;
44276;SDS011;29973;43.742;1.236;2023-11-22T11:16:13;4.15;;;2.40;;
44276;SDS011;29973;43.742;1.236;2023-11-22T11:18:39;4.30;;;2.38;;
44276;SDS011;29973;43.742;1.236;2023-11-22T11:23:51;3.65;;;3.05;;
44276;SDS011;29973;43.742;1.236;2023-11-22T11:26:19;2.45;;;2.13;;
44276;SDS011;29973;43.742;1.236;2023-11-22T11:28:47;3.35;;;2.15;;
44276;SDS011;29973;43.742;1.236;2023-11-22T11:31:14;2.40;;;2.20;;
44276;SDS011;29973;43.742;1.236;2023-11-22T11:36:15;6.72;;;2.70;;
44276;SDS011;29973;43.742;1.236;2023-11-22T11:38:46;3.08;;;2.47;;
44276;SDS011;29973;43.742;1.236;2023-11-22T11:41:14;4.68;;;3.00;;
44276;SDS011;29973;43.742;1.236;2023-11-22T11:46:14;4.85;;;2.72;;
44276;SDS011;29973;43.742;1.236;2023-11-22T11:48:43;2.95;;;2.10;;
44276;SDS011;29973;43.742;1.236;2023-11-22T11:51:09;2.80;;;2.55;;
44276;SDS011;29973;43.742;1.236;2023-11-22T11:53:38;3.97;;;1.95;;
44276;SDS011;29973;43.742;1.236;2023-11-22T11:56:04;4.70;;;2.30;;
44276;SDS011;29973;43.742;1.236;2023-11-22T11:58:30;4.10;;;2.42;;
44276;SDS011;29973;43.742;1.236;2023-11-22T12:00:57;2.92;;;2.33;;
44276;SDS011;29973;43.742;1.236;2023-11-22T12:03:23;2.50;;;2.30;;
44276;SDS011;29973;43.742;1.236;2023-11-22T12:05:49;5.30;;;2.60;;
44276;SDS011;29973;43.742;1.236;2023-11-22T12:08:15;2.88;;;2.63;;
44276;SDS011;29973;43.742;1.236;2023-11-22T12:10:42;4.75;;;2.50;;
44276;SDS011;29973;43.742;1.236;2023-11-22T12:13:08;4.75;;;2.58;;
44276;SDS011;29973;43.742;1.236;2023-11-22T12:15:34;4.28;;;2.88;;
44276;SDS011;29973;43.742;1.236;2023-11-22T12:43:37;3.72;;;2.47;;
44276;SDS011;29973;43.742;1.236;2023-11-22T12:46:05;4.80;;;2.17;;
44276;SDS011;29973;43.742;1.236;2023-11-22T12:48:32;3.03;;;2.40;;
44276;SDS011;29973;43.742;1.236;2023-11-22T12:50:58;3.92;;;2.80;;
44276;SDS011;29973;43.742;1.236;2023-11-22T12:53:25;2.75;;;2.15;;
44276;SDS011;29973;43.742;1.236;2023-11-22T12:55:53;3.72;;;2.20;;
44276;SDS011;29973;43.742;1.236;2023-11-22T12:58:20;4.30;;;2.22;;
44276;SDS011;29973;43.742;1.236;2023-11-22T13:03:35;2.92;;;1.98;;
44276;SDS011;29973;43.742;1.236;2023-11-22T13:06:01;4.03;;;2.33;;
44276;SDS011;29973;43.742;1.236;2023-11-22T13:08:27;2.30;;;2.10;;
44276;SDS011;29973;43.742;1.236;2023-11-22T15:10:18;3.30;;;3.00;;
44276;SDS011;29973;43.742;1.236;2023-11-22T15:12:45;2.97;;;2.67;;
44276;SDS011;29973;43.742;1.236;2023-11-22T15:15:11;2.33;;;2.00;;
44276;SDS011;29973;43.742;1.236;2023-11-22T15:17:37;1.95;;;1.65;;
44276;SDS011;29973;43.742;1.236;2023-11-22T15:20:05;2.65;;;1.70;;
44276;SDS011;29973;43.742;1.236;2023-11-22T15:22:34;3.55;;;1.58;;
44276;SDS011;29973;43.742;1.236;2023-11-22T15:25:00;1.92;;;1.63;;
44276;SDS011;29973;43.742;1.236;2023-11-22T15:27:26;2.22;;;1.80;;
44276;SDS011;29973;43.742;1.236;2023-11-22T15:29:52;2.58;;;2.05;;
44276;SDS011;29973;43.742;1.236;2023-11-22T15:32:17;2.90;;;2.05;;
44276;SDS011;29973;43.742;1.236;2023-11-22T15:34:44;1.85;;;1.67;;
44276;SDS011;29973;43.742;1.236;2023-11-22T15:37:28;2.70;;;1.98;;
44276;SDS011;29973;43.742;1.236;2023-11-22T15:39:54;3.75;;;2.03;;
44276;SDS011;29973;43.742;1.236;2023-11-22T15:42:20;2.85;;;2.10;;
44276;SDS011;29973;43.742;1.236;2023-11-22T15:44:47;2.35;;;2.00;;
44276;SDS011;29973;43.742;1.236;2023-11-22T15:47:12;2.28;;;2.08;;
44276;SDS011;29973;43.742;1.236;2023-11-22T15:52:58;3.07;;;1.97;;
44276;SDS011;29973;43.742;1.236;2023-11-22T16:39:52;11.10;;;8.15;;
44276;SDS011;29973;43.742;1.236;2023-11-22T16:42:53;14.68;;;9.73;;
44276;SDS011;29973;43.742;1.236;2023-11-22T20:45:57;9.50;;;6.43;;
44276;SDS011;29973;43.742;1.236;2023-11-22T20:48:23;14.30;;;7.65;;
44276;SDS011;29973;43.742;1.236;2023-11-22T20:50:50;12.45;;;6.97;;
44276;SDS011;29973;43.742;1.236;2023-11-22T20:53:16;12.48;;;8.60;;
44276;SDS011;29973;43.742;1.236;2023-11-22T20:55:42;12.93;;;9.38;;
44276;SDS011;29973;43.742;1.236;2023-11-22T20:58:07;12.82;;;9.50;;
44276;SDS011;29973;43.742;1.236;2023-11-22T21:00:33;11.68;;;9.65;;
44276;SDS011;29973;43.742;1.236;2023-11-22T21:02:59;9.95;;;8.95;;
44276;SDS011;29973;43.742;1.236;2023-11-22T21:05:24;14.00;;;9.57;;
44276;SDS011;29973;43.742;1.236;2023-11-22T21:07:50;14.07;;;10.13;;
44276;SDS011;29973;43.742;1.236;2023-11-22T21:10:15;18.13;;;9.15;;
44276;SDS011;29973;43.742;1.236;2023-11-22T21:12:41;11.00;;;9.00;;
44276;SDS011;29973;43.742;1.236;2023-11-22T21:15:07;10.60;;;8.73;;
44276;SDS011;29973;43.742;1.236;2023-11-22T21:17:34;7.97;;;7.15;;
44276;SDS011;29973;43.742;1.236;2023-11-22T21:20:00;10.52;;;9.52;;
44276;SDS011;29973;43.742;1.236;2023-11-22T21:22:32;9.18;;;8.18;;
44276;SDS011;29973;43.742;1.236;2023-11-22T21:24:58;10.45;;;7.68;;
44276;SDS011;29973;43.742;1.236;2023-11-22T21:27:24;10.25;;;8.18;;
44276;SDS011;29973;43.742;1.236;2023-11-22T21:29:50;8.40;;;6.28;;
44276;SDS011;29973;43.742;1.236;2023-11-22T21:32:16;12.48;;;7.43;;
44276;SDS011;29973;43.742;1.236;2023-11-22T21:34:41;9.85;;;8.27;;
44276;SDS011;29973;43.742;1.236;2023-11-22T21:37:07;13.07;;;9.07;;
44276;SDS011;29973;43.742;1.236;2023-11-22T21:39:33;14.23;;;8.32;;
44276;SDS011;29973;43.742;1.236;2023-11-22T21:41:59;9.88;;;6.28;;
44276;SDS011;29973;43.742;1.236;2023-11-22T21:44:26;9.18;;;7.80;;
44276;SDS011;29973;43.742;1.236;2023-11-22T21:46:52;11.63;;;7.55;;
44276;SDS011;29973;43.742;1.236;2023-11-22T21:49:18;10.63;;;8.50;;
44276;SDS011;29973;43.742;1.236;2023-11-22T21:51:43;10.45;;;7.93;;
44276;SDS011;29973;43.742;1.236;2023-11-22T21:54:09;8.75;;;7.53;;
44276;SDS011;29973;43.742;1.236;2023-11-22T21:56:39;9.80;;;7.60;;
44276;SDS011;29973;43.742;1.236;2023-11-22T21:59:06;10.93;;;6.85;;
44276;SDS011;29973;43.742;1.236;2023-11-22T22:01:32;12.88;;;9.32;;
44276;SDS011;29973;43.742;1.236;2023-11-22T22:03:57;12.65;;;8.88;;
44276;SDS011;29973;43.742;1.236;2023-11-22T22:06:23;8.90;;;7.97;;
44276;SDS011;29973;43.742;1.236;2023-11-22T22:08:49;9.23;;;8.32;;
44276;SDS011;29973;43.742;1.236;2023-11-22T22:11:14;10.68;;;6.88;;
44276;SDS011;29973;43.742;1.236;2023-11-22T22:13:40;10.50;;;8.90;;
44276;SDS011;29973;43.742;1.236;2023-11-22T22:16:06;11.32;;;8.15;;
44276;SDS011;29973;43.742;1.236;2023-11-22T22:18:34;13.02;;;8.40;;
44276;SDS011;29973;43.742;1.236;2023-11-22T22:21:01;12.35;;;8.50;;
44276;SDS011;29973;43.742;1.236;2023-11-22T22:23:26;8.75;;;7.82;;
44276;SDS011;29973;43.742;1.236;2023-11-22T22:25:52;9.73;;;8.75;;
44276;SDS011;29973;43.742;1.236;2023-11-22T22:28:18;11.07;;;8.55;;
44276;SDS011;29973;43.742;1.236;2023-11-22T22:30:44;11.82;;;8.10;;
44276;SDS011;29973;43.742;1.236;2023-11-22T22:33:09;10.68;;;9.00;;
44276;SDS011;29973;43.742;1.236;2023-11-22T22:35:35;9.80;;;8.57;;
44276;SDS011;29973;43.742;1.236;2023-11-22T22:38:00;9.63;;;7.68;;
44276;SDS011;29973;43.742;1.236;2023-11-22T22:40:29;9.32;;;7.85;;
44276;SDS011;29973;43.742;1.236;2023-11-22T22:42:55;9.10;;;8.15;;
44276;SDS011;29973;43.742;1.236;2023-11-22T22:45:20;9.88;;;8.77;;
44276;SDS011;29973;43.742;1.236;2023-11-22T22:47:46;9.57;;;7.93;;
44276;SDS011;29973;43.742;1.236;2023-11-22T22:50:13;12.10;;;9.18;;
44276;SDS011;29973;43.742;1.236;2023-11-22T22:52:39;11.10;;;8.95;;
44276;SDS011;29973;43.742;1.236;2023-11-22T22:55:05;9.32;;;8.30;;
44276;SDS011;29973;43.742;1.236;2023-11-22T22:57:32;9.18;;;7.57;;
44276;SDS011;29973;43.742;1.236;2023-11-22T22:59:58;9.30;;;8.40;;
44276;SDS011;29973;43.742;1.236;2023-11-22T23:02:24;11.15;;;9.75;;
44276;SDS011;29973;43.742;1.236;2023-11-22T23:04:50;9.40;;;8.30;;
44276;SDS011;29973;43.742;1.236;2023-11-22T23:07:16;9.20;;;8.00;;
44276;SDS011;29973;43.742;1.236;2023-11-22T23:09:41;11.30;;;8.38;;
44276;SDS011;29973;43.742;1.236;2023-11-22T23:12:08;13.70;;;9.40;;
44276;SDS011;29973;43.742;1.236;2023-11-22T23:14:35;10.70;;;8.70;;
44276;SDS011;29973;43.742;1.236;2023-11-22T23:17:02;11.63;;;9.60;;
44276;SDS011;29973;43.742;1.236;2023-11-22T23:19:30;9.82;;;8.55;;
44276;SDS011;29973;43.742;1.236;2023-11-22T23:21:55;10.07;;;7.63;;
44276;SDS011;29973;43.742;1.236;2023-11-22T23:24:21;10.15;;;7.07;;
44276;SDS011;29973;43.742;1.236;2023-11-22T23:26:47;10.20;;;8.82;;
44276;SDS011;29973;43.742;1.236;2023-11-22T23:29:13;8.75;;;6.85;;
44276;SDS011;29973;43.742;1.236;2023-11-22T23:31:41;10.55;;;8.27;;
44276;SDS011;29973;43.742;1.236;2023-11-22T23:34:07;9.90;;;7.10;;
44276;SDS011;29973;43.742;1.236;2023-11-22T23:36:33;10.90;;;7.15;;
44276;SDS011;29973;43.742;1.236;2023-11-22T23:38:59;9.50;;;7.28;;
44276;SDS011;29973;43.742;1.236;2023-11-22T23:41:24;11.40;;;7.47;;
44276;SDS011;29973;43.742;1.236;2023-11-22T23:43:50;9.73;;;7.85;;
44276;SDS011;29973;43.742;1.236;2023-11-22T23:46:16;12.48;;;9.00;;
44276;SDS011;29973;43.742;1.236;2023-11-22T23:48:42;12.32;;;8.13;;
44276;SDS011;29973;43.742;1.236;2023-11-22T23:51:08;8.93;;;7.43;;
44276;SDS011;29973;43.742;1.236;2023-11-22T23:53:34;9.18;;;7.95;;
44276;SDS011;29973;43.742;1.236;2023-11-22T23:56:01;13.13;;;9.52;;
44276;SDS011;29973;43.742;1.236;2023-11-22T23:58:26;10.85;;;7.63;;
